createdAt,value
2024-03-14T00:01:09.908Z,21.23
2024-03-14T00:03:38.310Z,17.08
2024-03-14T00:06:05.110Z,18.92
2024-03-14T00:08:31.685Z,20.92
2024-03-14T00:10:58.192Z,22.40
2024-03-14T00:13:25.859Z,19.08
2024-03-14T00:15:52.406Z,20.80
2024-03-14T00:18:19.923Z,19.98
2024-03-14T00:20:46.526Z,18.90
2024-03-14T00:23:13.257Z,21.90
2024-03-14T00:25:41.816Z,22.27
2024-03-14T00:28:11.180Z,21.98
2024-03-14T00:30:37.773Z,21.85
2024-03-14T00:33:05.578Z,18.60
2024-03-14T00:35:32.275Z,19.20
2024-03-14T00:37:59.517Z,20.40
2024-03-14T00:40:26.708Z,19.62
2024-03-14T00:42:53.658Z,21.17
2024-03-14T00:45:20.488Z,21.75
2024-03-14T00:47:47.430Z,18.90
2024-03-14T00:50:14.357Z,18.17
2024-03-14T00:52:41.278Z,18.75
2024-03-14T00:55:10.205Z,22.17
2024-03-14T00:57:38.093Z,20.42
2024-03-14T01:00:14.839Z,18.02
2024-03-14T01:02:42.646Z,19.37
2024-03-14T01:05:10.094Z,17.17
2024-03-14T01:07:36.658Z,20.92
2024-03-14T01:10:06.017Z,17.60
2024-03-14T01:12:32.887Z,19.95
2024-03-14T01:14:59.656Z,20.75
2024-03-14T01:17:26.134Z,21.25
2024-03-14T01:20:12.849Z,20.42
2024-03-14T01:22:39.342Z,23.42
2024-03-14T01:25:07.028Z,21.98
2024-03-14T01:27:33.755Z,21.02
2024-03-14T01:30:00.616Z,20.92
2024-03-14T01:32:27.248Z,22.50
2024-03-14T01:34:54.012Z,18.67
2024-03-14T01:37:23.139Z,22.77
2024-03-14T01:39:51.478Z,20.73
2024-03-14T01:42:18.265Z,20.37
2024-03-14T01:44:54.133Z,19.90
2024-03-14T01:47:22.859Z,21.52
2024-03-14T01:49:51.638Z,19.85
2024-03-14T01:52:21.232Z,22.20
2024-03-14T01:54:50.925Z,20.73
2024-03-14T01:57:18.617Z,19.25
2024-03-14T01:59:50.996Z,20.67
2024-03-14T02:02:18.915Z,21.27
2024-03-14T02:04:48.779Z,23.70
2024-03-14T02:07:18.977Z,21.45
2024-03-14T02:09:48.511Z,22.30
2024-03-14T02:12:15.210Z,22.55
2024-03-14T02:14:42.180Z,22.60
2024-03-14T02:17:08.940Z,21.10
2024-03-14T02:19:35.422Z,22.75
2024-03-14T02:22:02.474Z,21.60
2024-03-14T02:24:29.236Z,23.25
2024-03-14T02:27:00.610Z,20.65
2024-03-14T02:29:27.610Z,21.83
2024-03-14T02:31:54.056Z,24.48
2024-03-14T02:34:20.757Z,23.17
2024-03-14T02:36:47.532Z,24.95
2024-03-14T02:39:17.273Z,22.42
2024-03-14T02:41:43.802Z,22.95
2024-03-14T02:44:17.878Z,24.42
2024-03-14T02:46:54.549Z,23.40
2024-03-14T02:49:21.972Z,22.35
2024-03-14T02:51:48.639Z,23.27
2024-03-14T02:54:16.710Z,23.62
2024-03-14T02:56:51.596Z,23.42
2024-03-14T02:59:18.668Z,22.75
2024-03-14T03:01:45.292Z,23.48
2024-03-14T03:04:12.424Z,22.90
2024-03-14T03:06:59.265Z,22.48
2024-03-14T03:09:28.812Z,20.35
2024-03-14T03:11:55.501Z,23.65
2024-03-14T03:14:22.804Z,23.08
2024-03-14T03:16:49.337Z,24.12
2024-03-14T03:19:16.125Z,22.02
2024-03-14T03:21:42.652Z,21.15
2024-03-14T03:24:09.506Z,21.55
2024-03-14T03:26:36.589Z,22.73
2024-03-14T03:29:03.221Z,24.10
2024-03-14T03:31:30.379Z,23.15
2024-03-14T03:33:57.843Z,23.00
2024-03-14T03:36:24.676Z,23.70
2024-03-14T03:38:51.384Z,22.10
2024-03-14T03:41:17.964Z,22.10
2024-03-14T03:43:47.346Z,23.48
2024-03-14T03:46:13.829Z,23.38
2024-03-14T03:48:40.459Z,25.77
2024-03-14T03:51:07.099Z,26.10
2024-03-14T03:53:33.741Z,22.83
2024-03-14T03:56:06.597Z,24.17
2024-03-14T03:58:34.240Z,25.33
2024-03-14T04:01:08.376Z,23.92
2024-03-14T04:03:37.687Z,23.35
2024-03-14T04:06:04.425Z,22.23
2024-03-14T04:08:31.924Z,23.95
2024-03-14T04:10:58.465Z,23.42
2024-03-14T04:13:25.052Z,24.37
2024-03-14T04:15:51.641Z,23.17
2024-03-14T04:18:18.237Z,22.75
2024-03-14T04:20:44.953Z,23.62
2024-03-14T04:23:11.666Z,22.83
2024-03-14T04:25:38.599Z,23.85
2024-03-14T04:28:08.595Z,23.27
2024-03-14T04:30:35.203Z,23.55
2024-03-14T04:33:01.898Z,21.65
2024-03-14T04:35:28.502Z,24.05
2024-03-14T04:37:55.115Z,21.87
2024-03-14T04:40:22.608Z,22.50
2024-03-14T04:42:55.727Z,26.23
2024-03-14T04:45:23.241Z,27.40
2024-03-14T04:47:50.220Z,24.12
2024-03-14T04:50:20.199Z,28.33
2024-03-14T04:52:47.087Z,24.42
2024-03-14T04:55:14.040Z,24.60
2024-03-14T04:57:44.981Z,22.27
2024-03-14T05:00:21.296Z,24.00
2024-03-14T05:02:52.594Z,24.00
2024-03-14T05:05:22.085Z,25.35
2024-03-14T05:07:49.615Z,23.85
2024-03-14T05:10:20.081Z,23.10
2024-03-14T05:12:47.424Z,23.40
2024-03-14T05:15:15.496Z,23.85
2024-03-14T05:17:43.407Z,24.33
2024-03-14T05:20:11.931Z,24.50
2024-03-14T05:22:39.589Z,23.98
2024-03-14T05:25:07.950Z,25.70
2024-03-14T05:30:05.140Z,25.83
2024-03-14T05:32:33.382Z,25.20
2024-03-14T05:35:01.669Z,21.45
2024-03-14T05:37:28.892Z,24.30
2024-03-14T05:39:56.242Z,27.90
2024-03-14T05:42:23.348Z,29.17
2024-03-14T05:44:50.607Z,25.52
2024-03-14T05:47:17.253Z,25.37
2024-03-14T05:49:43.873Z,25.58
2024-03-14T05:52:11.508Z,26.90
2024-03-14T05:54:38.562Z,26.70
2024-03-14T05:57:05.269Z,24.80
2024-03-14T05:59:32.109Z,27.92
2024-03-14T06:01:59.077Z,25.83
2024-03-14T06:04:25.622Z,26.48
2024-03-14T06:06:52.089Z,30.02
2024-03-14T06:09:19.019Z,26.48
2024-03-14T06:11:45.720Z,26.75
2024-03-14T06:14:12.272Z,26.10
2024-03-14T06:16:38.786Z,26.02
2024-03-14T06:19:07.610Z,24.17
2024-03-14T06:21:41.404Z,23.98
2024-03-14T06:24:07.960Z,25.35
2024-03-14T06:26:38.192Z,25.77
2024-03-14T06:29:04.665Z,26.87
2024-03-14T06:31:31.117Z,27.37
2024-03-14T06:33:57.690Z,26.50
2024-03-14T06:36:25.257Z,24.90
2024-03-14T06:38:52.503Z,26.75
2024-03-14T06:41:20.345Z,23.70
2024-03-14T06:43:47.010Z,22.13
2024-03-14T06:46:16.713Z,20.85
2024-03-14T06:48:43.512Z,19.73
2024-03-14T06:51:11.698Z,19.50
2024-03-14T06:53:39.675Z,25.50
2024-03-14T06:56:10.033Z,20.48
2024-03-14T06:58:36.780Z,20.90
2024-03-14T07:01:03.355Z,21.90
2024-03-14T07:03:29.926Z,18.35
2024-03-14T07:05:59.165Z,19.12
2024-03-14T07:08:27.804Z,19.58
2024-03-14T07:10:54.646Z,18.45
2024-03-14T07:13:21.240Z,23.12
2024-03-14T07:15:49.124Z,20.25
2024-03-14T07:18:17.752Z,21.45
2024-03-14T07:20:47.064Z,17.75
2024-03-14T07:23:14.713Z,15.00
2024-03-14T07:25:42.453Z,19.35
2024-03-14T07:28:10.634Z,17.70
2024-03-14T07:30:37.243Z,17.40
2024-03-14T07:33:03.964Z,22.37
2024-03-14T07:35:30.476Z,18.35
2024-03-14T07:37:57.312Z,20.05
2024-03-14T07:40:33.959Z,20.05
2024-03-14T07:43:00.886Z,20.58
2024-03-14T07:45:27.835Z,19.75
2024-03-14T07:48:19.185Z,17.77
2024-03-14T07:50:52.264Z,17.87
2024-03-14T07:53:20.446Z,16.12
2024-03-14T07:55:47.204Z,17.95
2024-03-14T07:58:13.680Z,18.55
2024-03-14T08:00:40.202Z,17.73
2024-03-14T08:03:06.700Z,17.65
2024-03-14T08:05:35.416Z,17.50
2024-03-14T08:08:13.904Z,16.55
2024-03-14T08:10:48.009Z,20.08
2024-03-14T08:13:21.520Z,17.48
2024-03-14T08:18:22.855Z,20.20
2024-03-14T08:20:49.594Z,17.55
2024-03-14T08:23:16.836Z,18.65
2024-03-14T08:25:43.762Z,17.48
2024-03-14T08:28:10.268Z,18.00
2024-03-14T08:30:38.820Z,17.27
2024-03-14T08:33:05.999Z,14.77
2024-03-14T08:35:34.536Z,15.55
2024-03-14T08:38:01.254Z,17.87
2024-03-14T08:40:28.118Z,20.52
2024-03-14T08:42:54.630Z,18.23
2024-03-14T08:45:21.538Z,15.95
2024-03-14T08:47:48.727Z,16.62
2024-03-14T08:50:16.773Z,17.40
2024-03-14T08:52:43.848Z,16.70
2024-03-14T08:55:26.657Z,15.38
2024-03-14T08:57:53.581Z,18.85
2024-03-14T09:00:23.322Z,17.85
2024-03-14T09:02:50.918Z,21.25
2024-03-14T09:05:17.935Z,19.75
2024-03-14T09:07:47.077Z,18.85
2024-03-14T09:10:29.526Z,17.87
2024-03-14T09:12:56.760Z,18.20
2024-03-14T09:15:25.566Z,18.55
2024-03-14T09:17:52.950Z,15.18
2024-03-14T09:20:22.624Z,16.15
2024-03-14T09:22:56.778Z,17.77
2024-03-14T09:25:25.155Z,20.98
2024-03-14T09:27:54.617Z,19.60
2024-03-14T09:30:23.455Z,18.60
2024-03-14T09:32:51.778Z,19.02
2024-03-14T09:35:26.814Z,22.17
2024-03-14T09:37:57.309Z,19.12
2024-03-14T09:40:40.011Z,20.55
2024-03-14T09:43:15.112Z,18.60
2024-03-14T09:45:43.670Z,18.08
2024-03-14T09:48:13.219Z,17.60
2024-03-14T09:50:40.010Z,15.77
2024-03-14T09:53:08.455Z,19.50
2024-03-14T09:55:37.041Z,18.02
2024-03-14T09:58:06.144Z,19.52
2024-03-14T10:00:32.990Z,18.45
2024-03-14T10:03:02.221Z,17.87
2024-03-14T10:05:29.734Z,14.82
2024-03-14T10:07:56.397Z,19.67
2024-03-14T10:10:24.442Z,19.10
2024-03-14T10:12:58.564Z,17.95
2024-03-14T10:15:26.835Z,18.77
2024-03-14T10:17:53.916Z,22.20
2024-03-14T10:20:21.729Z,21.52
2024-03-14T10:22:50.279Z,19.42
2024-03-14T10:25:18.634Z,18.33
2024-03-14T10:28:00.411Z,17.33
2024-03-14T10:30:35.215Z,17.23
2024-03-14T10:33:04.851Z,17.92
2024-03-14T10:35:33.898Z,16.05
2024-03-14T10:38:01.930Z,18.37
2024-03-14T10:40:31.819Z,15.77
2024-03-14T10:42:58.564Z,14.38
2024-03-14T10:45:28.530Z,14.23
2024-03-14T10:47:56.737Z,15.98
2024-03-14T10:50:23.852Z,19.25
2024-03-14T10:52:56.364Z,14.95
2024-03-14T10:55:46.703Z,16.58
2024-03-14T10:58:17.261Z,15.35
2024-03-14T11:00:45.475Z,16.17
2024-03-14T11:03:18.955Z,15.73
2024-03-14T11:05:52.990Z,16.12
2024-03-14T11:08:24.448Z,14.27
2024-03-14T11:10:56.481Z,15.45
2024-03-14T11:13:31.825Z,15.52
2024-03-14T11:16:00.402Z,13.02
2024-03-14T11:18:38.621Z,15.32
2024-03-14T11:21:07.541Z,16.83
2024-03-14T11:23:37.845Z,11.20
2024-03-14T11:26:13.796Z,11.00
2024-03-14T11:28:42.827Z,10.32
2024-03-14T11:31:09.383Z,14.55
2024-03-14T11:33:36.345Z,13.38
2024-03-14T11:36:05.656Z,15.52
2024-03-14T11:38:34.080Z,18.37
2024-03-14T11:41:04.680Z,15.63
2024-03-14T11:43:35.022Z,13.05
2024-03-14T11:46:24.641Z,9.63
2024-03-14T11:48:51.157Z,8.65
2024-03-14T11:51:20.179Z,9.77
2024-03-14T11:53:47.663Z,9.20
2024-03-14T11:56:15.265Z,10.65
2024-03-14T11:58:45.421Z,10.50
2024-03-14T12:01:21.603Z,9.15
2024-03-14T12:03:53.002Z,9.25
2024-03-14T12:06:19.869Z,10.48
2024-03-14T12:08:48.886Z,9.23
2024-03-14T12:11:15.839Z,8.73
2024-03-14T12:13:53.442Z,10.65
2024-03-14T12:16:20.659Z,11.15
2024-03-14T12:18:53.645Z,9.57
2024-03-14T12:21:20.754Z,9.45
2024-03-14T12:23:52.020Z,9.88
2024-03-14T12:26:19.466Z,9.13
2024-03-14T12:28:49.352Z,11.07
2024-03-14T12:31:18.770Z,10.85
2024-03-14T12:33:48.369Z,11.60
2024-03-14T12:36:18.873Z,11.50
2024-03-14T12:38:52.767Z,10.65
2024-03-14T12:41:19.986Z,10.75
2024-03-14T12:43:48.584Z,9.50
2024-03-14T12:46:18.834Z,9.27
2024-03-14T12:48:46.981Z,9.07
2024-03-14T12:51:18.305Z,9.30
2024-03-14T12:53:57.470Z,10.07
2024-03-14T12:56:25.729Z,10.93
2024-03-14T12:58:53.807Z,11.25
2024-03-14T13:01:20.525Z,9.70
2024-03-14T13:03:47.526Z,14.05
2024-03-14T13:06:24.927Z,10.15
2024-03-14T13:09:26.397Z,12.82
2024-03-14T13:12:23.466Z,9.45
2024-03-14T13:15:12.232Z,10.35
2024-03-14T13:17:39.782Z,11.63
2024-03-14T13:20:19.501Z,10.45
2024-03-14T13:22:49.286Z,11.25
2024-03-14T13:25:15.808Z,10.77
2024-03-14T13:27:42.381Z,11.65
2024-03-14T13:30:09.768Z,10.38
2024-03-14T13:32:38.510Z,11.40
2024-03-14T13:35:11.170Z,11.57
2024-03-14T13:37:37.830Z,10.30
2024-03-14T13:42:42.982Z,11.35
2024-03-14T13:45:09.674Z,10.38
2024-03-14T13:47:39.134Z,10.23
2024-03-14T13:50:10.833Z,10.70
2024-03-14T13:52:42.479Z,9.55
2024-03-14T13:55:26.288Z,10.20
2024-03-14T13:57:56.199Z,11.12
2024-03-14T14:00:30.781Z,11.25
2024-03-14T14:03:00.249Z,9.07
2024-03-14T14:05:26.798Z,11.60
2024-03-14T14:07:56.676Z,11.80
2024-03-14T14:10:24.146Z,10.10
2024-03-14T14:12:52.016Z,11.20
2024-03-14T14:15:19.429Z,11.25
2024-03-14T14:17:46.328Z,11.18
2024-03-14T14:20:18.402Z,11.43
2024-03-14T14:22:46.415Z,10.48
2024-03-14T14:25:15.965Z,13.40
2024-03-14T14:27:46.166Z,9.07
2024-03-14T14:30:22.703Z,10.85
2024-03-14T14:32:50.604Z,11.25
2024-03-14T14:35:17.545Z,12.50
2024-03-14T14:37:50.517Z,14.48
2024-03-14T14:40:17.551Z,15.98
2024-03-14T14:42:44.422Z,12.68
2024-03-14T14:45:11.766Z,12.30
2024-03-14T14:47:43.087Z,12.63
2024-03-14T14:50:11.232Z,13.18
2024-03-14T14:52:39.010Z,12.85
2024-03-14T14:55:12.975Z,13.90
2024-03-14T14:57:45.112Z,13.27
2024-03-14T15:00:15.389Z,15.45
2024-03-14T15:02:48.640Z,12.37
2024-03-14T15:05:15.524Z,12.93
2024-03-14T15:07:42.664Z,20.52
2024-03-14T15:10:11.780Z,14.45
2024-03-14T15:12:46.767Z,13.15
2024-03-14T15:15:23.900Z,12.55
2024-03-14T15:17:51.355Z,12.10
2024-03-14T15:20:22.189Z,13.32
2024-03-14T15:22:50.153Z,12.90
2024-03-14T15:25:18.092Z,11.73
2024-03-14T15:27:46.179Z,11.57
2024-03-14T15:30:13.713Z,12.45
2024-03-14T15:32:43.533Z,11.80
2024-03-14T15:35:12.518Z,11.00
2024-03-14T15:37:40.121Z,10.02
2024-03-14T15:40:16.795Z,9.60
2024-03-14T15:42:44.804Z,11.07
2024-03-14T15:45:18.312Z,10.77
2024-03-14T15:47:49.697Z,11.15
2024-03-14T15:50:17.821Z,10.43
2024-03-14T15:52:45.755Z,10.48
2024-03-14T15:55:14.198Z,12.35
2024-03-14T15:57:40.896Z,10.98
2024-03-14T16:00:09.672Z,10.10
2024-03-14T16:02:40.042Z,10.48
2024-03-14T16:05:11.465Z,9.45
2024-03-14T16:07:38.133Z,10.38
2024-03-14T16:10:16.856Z,9.73
2024-03-14T16:12:44.316Z,8.98
2024-03-14T16:15:13.700Z,9.63
2024-03-14T16:17:41.034Z,8.20
2024-03-14T16:20:35.074Z,9.23
2024-03-14T16:23:04.630Z,9.80
2024-03-14T16:25:36.163Z,8.43
2024-03-14T16:28:04.568Z,10.85
2024-03-14T16:30:32.148Z,10.77
2024-03-14T16:32:58.955Z,8.32
2024-03-14T16:35:33.870Z,10.50
2024-03-14T16:38:02.964Z,9.15
2024-03-14T16:40:31.084Z,9.52
2024-03-14T16:42:59.762Z,8.73
2024-03-14T16:45:36.052Z,9.15
2024-03-14T16:48:03.842Z,9.55
2024-03-14T16:50:31.872Z,8.32
2024-03-14T16:52:59.174Z,8.10
2024-03-14T16:55:27.478Z,8.77
2024-03-14T16:57:55.270Z,9.93
2024-03-14T17:00:31.835Z,8.32
2024-03-14T17:02:59.658Z,9.77
2024-03-14T17:05:26.452Z,9.10
2024-03-14T17:07:57.164Z,9.80
2024-03-14T17:10:24.788Z,9.68
2024-03-14T17:12:52.490Z,12.00
2024-03-14T17:15:19.715Z,21.73
2024-03-14T17:17:46.788Z,17.40
2024-03-14T17:20:13.995Z,38.05
2024-03-14T17:22:41.125Z,34.45
2024-03-14T17:25:08.504Z,26.60
2024-03-14T17:27:36.035Z,15.88
2024-03-14T17:30:07.311Z,18.85
2024-03-14T17:32:34.732Z,15.45
2024-03-14T17:35:02.306Z,18.00
2024-03-14T17:37:28.815Z,15.93
2024-03-14T17:39:55.641Z,18.37
2024-03-14T17:42:22.149Z,18.90
2024-03-14T17:44:48.659Z,25.17
2024-03-14T17:47:15.122Z,21.23
2024-03-14T17:49:41.714Z,23.70
2024-03-14T17:52:09.500Z,19.42
2024-03-14T17:54:36.144Z,17.80
2024-03-14T17:57:04.054Z,22.30
2024-03-14T17:59:30.627Z,19.42
2024-03-14T18:01:57.642Z,19.25
2024-03-14T18:04:24.202Z,30.33
2024-03-14T18:06:50.765Z,40.80
2024-03-14T18:09:19.005Z,21.77
2024-03-14T18:11:46.490Z,29.12
2024-03-14T18:14:14.625Z,25.55
2024-03-14T18:16:42.483Z,31.17
2024-03-14T18:19:10.314Z,48.83
2024-03-14T18:21:40.207Z,47.35
2024-03-14T18:24:08.333Z,28.98
2024-03-14T18:26:38.329Z,31.70
2024-03-14T18:29:07.320Z,30.88
2024-03-14T18:31:47.866Z,28.62
2024-03-14T18:34:33.511Z,26.45
2024-03-14T18:37:00.482Z,23.40
2024-03-14T18:39:33.234Z,22.45
2024-03-14T18:42:05.959Z,23.92
2024-03-14T18:44:34.012Z,23.08
2024-03-14T18:47:00.696Z,25.33
2024-03-14T18:49:27.321Z,24.12
2024-03-14T18:51:54.999Z,24.48
2024-03-14T18:54:22.104Z,23.90
2024-03-14T18:56:50.996Z,23.73
2024-03-14T18:59:18.836Z,24.17
2024-03-14T19:01:45.433Z,23.90
2024-03-14T19:04:13.543Z,24.02
2024-03-14T19:06:40.094Z,24.87
2024-03-14T19:09:07.224Z,21.30
2024-03-14T19:11:34.084Z,22.83
2024-03-14T19:14:01.382Z,20.73
2024-03-14T19:16:28.026Z,17.12
2024-03-14T19:18:56.270Z,16.12
2024-03-14T19:21:22.955Z,16.60
2024-03-14T19:23:49.646Z,16.90
2024-03-14T19:26:18.171Z,18.40
2024-03-14T19:28:44.670Z,17.37
2024-03-14T19:31:11.907Z,18.00
2024-03-14T19:33:38.620Z,18.80
2024-03-14T19:36:05.383Z,21.00
2024-03-14T19:38:33.251Z,16.62
2024-03-14T19:40:59.750Z,16.37
2024-03-14T19:43:26.264Z,17.95
2024-03-14T19:45:52.898Z,18.83
2024-03-14T19:48:20.447Z,16.12
2024-03-14T19:50:47.805Z,15.23
2024-03-14T19:53:15.097Z,15.88
2024-03-14T19:55:41.651Z,17.95
2024-03-14T19:58:08.580Z,16.55
2024-03-14T20:00:35.218Z,17.17
2024-03-14T20:03:03.298Z,17.02
2024-03-14T20:05:32.957Z,16.58
2024-03-14T20:08:00.027Z,16.80
2024-03-14T20:10:27.631Z,14.93
2024-03-14T20:12:55.188Z,16.75
2024-03-14T20:15:25.751Z,17.87
2024-03-14T20:17:52.539Z,16.17
2024-03-14T20:20:19.324Z,17.65
2024-03-14T20:22:45.770Z,15.48
2024-03-14T20:25:13.507Z,17.05
2024-03-14T20:27:40.508Z,18.87
2024-03-14T20:30:13.686Z,15.63
2024-03-14T20:32:43.168Z,16.98
2024-03-14T20:35:10.145Z,15.07
2024-03-14T20:37:37.795Z,15.85
2024-03-14T20:40:05.594Z,15.88
2024-03-14T20:42:35.586Z,15.23
2024-03-14T20:45:02.299Z,16.85
2024-03-14T20:47:31.984Z,15.10
2024-03-14T20:49:58.618Z,14.60
2024-03-14T20:52:26.774Z,15.40
2024-03-14T20:55:21.312Z,16.77
2024-03-14T20:57:56.839Z,18.20
2024-03-14T21:00:42.488Z,17.00
2024-03-14T21:03:10.025Z,20.08
2024-03-14T21:05:37.550Z,20.35
2024-03-14T21:08:11.205Z,20.30
2024-03-14T21:10:39.061Z,20.55
2024-03-14T21:13:06.279Z,20.83
2024-03-14T21:15:33.055Z,19.95
2024-03-14T21:17:59.767Z,22.17
2024-03-14T21:20:28.307Z,20.50
2024-03-14T21:22:57.069Z,19.85
2024-03-14T21:25:25.669Z,21.05
2024-03-14T21:27:52.433Z,19.02
2024-03-14T21:30:20.307Z,18.45
2024-03-14T21:32:46.963Z,20.52
2024-03-14T21:35:13.822Z,20.48
2024-03-14T21:37:41.292Z,19.83
2024-03-14T21:40:09.268Z,20.08
2024-03-14T21:42:37.564Z,20.12
2024-03-14T21:45:07.704Z,22.52
2024-03-14T21:47:37.981Z,18.58
2024-03-14T21:50:05.218Z,23.98
2024-03-14T21:52:34.437Z,21.52
2024-03-14T21:55:01.775Z,21.87
2024-03-14T21:57:28.363Z,19.58
2024-03-14T21:59:54.908Z,26.52
2024-03-14T22:02:21.925Z,34.83
2024-03-14T22:04:48.453Z,29.35
2024-03-14T22:07:14.974Z,31.98
2024-03-14T22:09:42.127Z,34.15
2024-03-14T22:12:08.741Z,36.28
2024-03-14T22:14:35.275Z,26.92
2024-03-14T22:17:02.017Z,28.02
2024-03-14T22:19:28.635Z,27.73
2024-03-14T22:21:55.561Z,26.02
2024-03-14T22:24:23.342Z,24.98
2024-03-14T22:26:49.867Z,21.40
2024-03-14T22:29:16.793Z,22.00
2024-03-14T22:31:43.560Z,23.67
2024-03-14T22:34:10.151Z,25.33
2024-03-14T22:36:40.122Z,19.85
2024-03-14T22:39:11.085Z,23.40
2024-03-14T22:41:40.751Z,26.12
2024-03-14T22:44:07.319Z,24.35
2024-03-14T22:46:34.220Z,26.73
2024-03-14T22:49:03.630Z,27.77
2024-03-14T22:51:30.191Z,24.87
2024-03-14T22:53:58.177Z,25.73
2024-03-14T22:56:24.671Z,25.58
2024-03-14T22:58:51.407Z,28.15
2024-03-14T23:01:17.973Z,24.70
2024-03-14T23:03:46.068Z,28.05
2024-03-14T23:06:14.910Z,28.05
2024-03-14T23:08:41.419Z,26.62
2024-03-14T23:11:07.975Z,27.55
2024-03-14T23:13:34.581Z,24.15
2024-03-14T23:16:01.530Z,22.08
2024-03-14T23:18:28.255Z,23.30
2024-03-14T23:20:59.565Z,23.12
2024-03-14T23:23:29.308Z,23.10
2024-03-14T23:25:57.265Z,26.35
2024-03-14T23:28:25.952Z,22.23
2024-03-14T23:30:52.646Z,23.17
2024-03-14T23:33:19.337Z,20.88
2024-03-14T23:35:47.661Z,21.02
2024-03-14T23:38:14.338Z,20.95
2024-03-14T23:40:41.178Z,20.33
2024-03-14T23:43:07.791Z,19.92
2024-03-14T23:45:35.620Z,19.27
2024-03-14T23:48:02.987Z,20.08
2024-03-14T23:50:30.252Z,20.42
2024-03-14T23:52:56.968Z,21.60
2024-03-14T23:55:23.831Z,22.67
2024-03-14T23:57:50.625Z,24.87
